sensor_id;sensor_type;location;lat;lon;timestamp;temperature;humidity
18067;DHT22;9158;51.528;7.192;2023-09-19T00:00:17;16.00;1.00
18067;DHT22;9158;51.528;7.192;2023-09-19T00:00:56;16.00;1.00
18067;DHT22;9158;51.528;7.192;2023-09-19T00:01:27;16.00;1.00
18067;DHT22;9158;51.528;7.192;2023-09-19T00:01:58;16.00;1.00
18067;DHT22;9158;51.528;7.192;2023-09-19T00:02:30;16.00;1.00
18067;DHT22;9158;51.528;7.192;2023-09-19T00:03:01;16.00;1.00
18067;DHT22;9158;51.528;7.192;2023-09-19T00:03:32;16.00;1.00
18067;DHT22;9158;51.528;7.192;2023-09-19T00:04:04;16.00;1.00
18067;DHT22;9158;51.528;7.192;2023-09-19T00:04:40;16.00;1.00
18067;DHT22;9158;51.528;7.192;2023-09-19T00:05:13;16.00;1.00
18067;DHT22;9158;51.528;7.192;2023-09-19T00:05:44;16.00;1.00
18067;DHT22;9158;51.528;7.192;2023-09-19T00:06:15;16.00;1.00
18067;DHT22;9158;51.528;7.192;2023-09-19T00:06:47;16.00;1.00
18067;DHT22;9158;51.528;7.192;2023-09-19T00:07:18;16.00;1.00
18067;DHT22;9158;51.528;7.192;2023-09-19T00:07:50;16.00;1.00
18067;DHT22;9158;51.528;7.192;2023-09-19T00:08:22;16.00;1.00
18067;DHT22;9158;51.528;7.192;2023-09-19T00:08:54;16.00;1.00
18067;DHT22;9158;51.528;7.192;2023-09-19T00:09:25;16.00;1.00
18067;DHT22;9158;51.528;7.192;2023-09-19T00:09:58;16.00;1.00
18067;DHT22;9158;51.528;7.192;2023-09-19T00:10:31;15.90;1.00
18067;DHT22;9158;51.528;7.192;2023-09-19T00:11:03;16.00;1.00
18067;DHT22;9158;51.528;7.192;2023-09-19T00:11:36;15.90;1.00
18067;DHT22;9158;51.528;7.192;2023-09-19T00:12:08;15.90;1.00
18067;DHT22;9158;51.528;7.192;2023-09-19T00:12:42;15.90;1.00
18067;DHT22;9158;51.528;7.192;2023-09-19T00:13:14;15.90;1.00
18067;DHT22;9158;51.528;7.192;2023-09-19T00:13:47;15.90;1.00
18067;DHT22;9158;51.528;7.192;2023-09-19T00:14:20;15.90;1.00
18067;DHT22;9158;51.528;7.192;2023-09-19T00:14:55;15.90;1.00
18067;DHT22;9158;51.528;7.192;2023-09-19T00:15:27;15.90;1.00
18067;DHT22;9158;51.528;7.192;2023-09-19T00:15:59;15.90;1.00
18067;DHT22;9158;51.528;7.192;2023-09-19T00:16:30;15.80;1.00
18067;DHT22;9158;51.528;7.192;2023-09-19T00:17:03;15.80;1.00
18067;DHT22;9158;51.528;7.192;2023-09-19T00:17:36;15.80;1.00
18067;DHT22;9158;51.528;7.192;2023-09-19T00:18:09;15.80;1.00
18067;DHT22;9158;51.528;7.192;2023-09-19T00:18:41;15.80;1.00
18067;DHT22;9158;51.528;7.192;2023-09-19T00:19:13;15.80;1.00
18067;DHT22;9158;51.528;7.192;2023-09-19T00:19:46;15.80;1.00
18067;DHT22;9158;51.528;7.192;2023-09-19T00:20:23;15.80;1.00
18067;DHT22;9158;51.528;7.192;2023-09-19T00:20:57;15.80;1.00
18067;DHT22;9158;51.528;7.192;2023-09-19T00:21:28;15.70;1.00
18067;DHT22;9158;51.528;7.192;2023-09-19T00:22:00;15.80;1.00
18067;DHT22;9158;51.528;7.192;2023-09-19T00:22:31;15.70;99.90
18067;DHT22;9158;51.528;7.192;2023-09-19T00:23:03;15.70;99.90
18067;DHT22;9158;51.528;7.192;2023-09-19T00:23:35;15.70;99.90
18067;DHT22;9158;51.528;7.192;2023-09-19T00:24:07;15.70;99.90
18067;DHT22;9158;51.528;7.192;2023-09-19T00:24:39;15.70;99.90
18067;DHT22;9158;51.528;7.192;2023-09-19T00:25:11;15.70;99.90
18067;DHT22;9158;51.528;7.192;2023-09-19T00:25:44;15.70;99.90
18067;DHT22;9158;51.528;7.192;2023-09-19T00:26:16;15.70;99.90
18067;DHT22;9158;51.528;7.192;2023-09-19T00:26:52;15.70;99.90
18067;DHT22;9158;51.528;7.192;2023-09-19T00:27:23;15.70;99.90
18067;DHT22;9158;51.528;7.192;2023-09-19T00:27:54;15.70;99.90
18067;DHT22;9158;51.528;7.192;2023-09-19T00:28:26;15.70;99.90
18067;DHT22;9158;51.528;7.192;2023-09-19T00:28:58;15.70;99.90
18067;DHT22;9158;51.528;7.192;2023-09-19T00:29:35;15.70;99.90
18067;DHT22;9158;51.528;7.192;2023-09-19T00:30:08;15.70;99.90
18067;DHT22;9158;51.528;7.192;2023-09-19T00:30:45;15.70;99.90
18067;DHT22;9158;51.528;7.192;2023-09-19T00:31:16;15.70;99.90
18067;DHT22;9158;51.528;7.192;2023-09-19T00:31:47;15.70;99.90
18067;DHT22;9158;51.528;7.192;2023-09-19T00:32:19;15.70;99.90
18067;DHT22;9158;51.528;7.192;2023-09-19T00:32:52;15.60;99.90
18067;DHT22;9158;51.528;7.192;2023-09-19T00:33:25;15.70;99.90
18067;DHT22;9158;51.528;7.192;2023-09-19T00:33:56;15.60;99.90
18067;DHT22;9158;51.528;7.192;2023-09-19T00:34:31;15.60;99.90
18067;DHT22;9158;51.528;7.192;2023-09-19T00:35:05;15.60;99.90
18067;DHT22;9158;51.528;7.192;2023-09-19T00:35:36;15.60;99.90
18067;DHT22;9158;51.528;7.192;2023-09-19T00:36:07;15.70;99.90
18067;DHT22;9158;51.528;7.192;2023-09-19T00:36:39;15.60;99.90
18067;DHT22;9158;51.528;7.192;2023-09-19T00:37:10;15.60;99.90
18067;DHT22;9158;51.528;7.192;2023-09-19T00:37:42;15.70;99.90
18067;DHT22;9158;51.528;7.192;2023-09-19T00:38:13;15.60;99.90
18067;DHT22;9158;51.528;7.192;2023-09-19T00:38:47;15.70;99.90
18067;DHT22;9158;51.528;7.192;2023-09-19T00:39:19;15.60;99.90
18067;DHT22;9158;51.528;7.192;2023-09-19T00:39:51;15.60;99.90
18067;DHT22;9158;51.528;7.192;2023-09-19T00:40:22;15.60;99.90
18067;DHT22;9158;51.528;7.192;2023-09-19T00:40:56;15.60;99.90
18067;DHT22;9158;51.528;7.192;2023-09-19T00:41:30;15.60;99.90
18067;DHT22;9158;51.528;7.192;2023-09-19T00:42:01;15.60;99.90
18067;DHT22;9158;51.528;7.192;2023-09-19T00:42:35;15.60;99.90
18067;DHT22;9158;51.528;7.192;2023-09-19T00:43:08;15.60;99.90
18067;DHT22;9158;51.528;7.192;2023-09-19T00:43:39;15.60;99.90
18067;DHT22;9158;51.528;7.192;2023-09-19T00:44:11;15.60;99.90
18067;DHT22;9158;51.528;7.192;2023-09-19T00:44:43;15.60;99.90
18067;DHT22;9158;51.528;7.192;2023-09-19T00:45:15;15.60;99.90
18067;DHT22;9158;51.528;7.192;2023-09-19T00:45:49;15.60;99.90
18067;DHT22;9158;51.528;7.192;2023-09-19T00:46:21;15.60;99.90
18067;DHT22;9158;51.528;7.192;2023-09-19T00:46:53;15.60;99.90
18067;DHT22;9158;51.528;7.192;2023-09-19T00:47:24;15.60;99.90
18067;DHT22;9158;51.528;7.192;2023-09-19T00:47:56;15.60;99.90
18067;DHT22;9158;51.528;7.192;2023-09-19T00:48:27;15.60;99.90
18067;DHT22;9158;51.528;7.192;2023-09-19T00:49:00;15.60;99.90
18067;DHT22;9158;51.528;7.192;2023-09-19T00:49:32;15.50;99.90
18067;DHT22;9158;51.528;7.192;2023-09-19T00:50:04;15.50;99.90
18067;DHT22;9158;51.528;7.192;2023-09-19T00:50:38;15.50;99.90
18067;DHT22;9158;51.528;7.192;2023-09-19T00:51:14;15.50;99.90
18067;DHT22;9158;51.528;7.192;2023-09-19T00:51:49;15.50;99.90
18067;DHT22;9158;51.528;7.192;2023-09-19T00:52:20;15.50;99.90
18067;DHT22;9158;51.528;7.192;2023-09-19T00:52:54;15.70;99.90
18067;DHT22;9158;51.528;7.192;2023-09-19T00:53:26;15.50;99.90
18067;DHT22;9158;51.528;7.192;2023-09-19T00:53:59;15.50;99.90
18067;DHT22;9158;51.528;7.192;2023-09-19T00:54:30;15.50;99.90
18067;DHT22;9158;51.528;7.192;2023-09-19T00:55:05;15.50;99.90
18067;DHT22;9158;51.528;7.192;2023-09-19T00:55:37;15.50;99.90
18067;DHT22;9158;51.528;7.192;2023-09-19T00:56:09;15.50;99.90
18067;DHT22;9158;51.528;7.192;2023-09-19T00:56:40;15.50;99.90
18067;DHT22;9158;51.528;7.192;2023-09-19T00:57:13;15.50;99.90
18067;DHT22;9158;51.528;7.192;2023-09-19T00:57:45;15.50;99.90
18067;DHT22;9158;51.528;7.192;2023-09-19T00:58:18;15.40;99.90
18067;DHT22;9158;51.528;7.192;2023-09-19T00:58:49;15.50;99.90
18067;DHT22;9158;51.528;7.192;2023-09-19T00:59:21;15.40;99.90
18067;DHT22;9158;51.528;7.192;2023-09-19T00:59:54;15.50;99.90
18067;DHT22;9158;51.528;7.192;2023-09-19T01:00:25;15.50;99.90
18067;DHT22;9158;51.528;7.192;2023-09-19T01:00:57;15.50;99.90
18067;DHT22;9158;51.528;7.192;2023-09-19T01:01:29;15.40;99.90
18067;DHT22;9158;51.528;7.192;2023-09-19T01:02:00;15.40;99.90
18067;DHT22;9158;51.528;7.192;2023-09-19T01:02:32;15.40;99.90
18067;DHT22;9158;51.528;7.192;2023-09-19T01:03:04;15.40;99.90
18067;DHT22;9158;51.528;7.192;2023-09-19T01:03:38;15.40;99.90
18067;DHT22;9158;51.528;7.192;2023-09-19T01:04:09;15.40;99.90
18067;DHT22;9158;51.528;7.192;2023-09-19T01:04:40;15.40;99.90
18067;DHT22;9158;51.528;7.192;2023-09-19T01:05:12;15.40;99.90
18067;DHT22;9158;51.528;7.192;2023-09-19T01:05:44;15.40;99.90
18067;DHT22;9158;51.528;7.192;2023-09-19T01:06:16;15.40;99.90
18067;DHT22;9158;51.528;7.192;2023-09-19T01:06:48;15.40;99.90
18067;DHT22;9158;51.528;7.192;2023-09-19T01:07:23;15.40;99.90
18067;DHT22;9158;51.528;7.192;2023-09-19T01:07:56;15.40;99.90
18067;DHT22;9158;51.528;7.192;2023-09-19T01:08:27;15.40;99.90
18067;DHT22;9158;51.528;7.192;2023-09-19T01:09:00;15.40;99.90
18067;DHT22;9158;51.528;7.192;2023-09-19T01:09:34;15.40;99.90
18067;DHT22;9158;51.528;7.192;2023-09-19T01:10:08;15.40;99.90
18067;DHT22;9158;51.528;7.192;2023-09-19T01:10:46;15.40;99.90
18067;DHT22;9158;51.528;7.192;2023-09-19T01:11:33;15.40;99.90
18067;DHT22;9158;51.528;7.192;2023-09-19T01:12:08;15.40;99.90
18067;DHT22;9158;51.528;7.192;2023-09-19T01:12:47;15.40;99.90
18067;DHT22;9158;51.528;7.192;2023-09-19T01:13:27;15.40;99.90
18067;DHT22;9158;51.528;7.192;2023-09-19T01:14:11;15.40;99.90
18067;DHT22;9158;51.528;7.192;2023-09-19T01:14:55;15.40;99.90
18067;DHT22;9158;51.528;7.192;2023-09-19T01:15:47;15.40;99.90
18067;DHT22;9158;51.528;7.192;2023-09-19T01:16:32;15.40;99.90
18067;DHT22;9158;51.528;7.192;2023-09-19T01:17:12;15.40;99.90
18067;DHT22;9158;51.528;7.192;2023-09-19T01:17:49;15.40;99.90
18067;DHT22;9158;51.528;7.192;2023-09-19T01:18:30;15.40;99.90
18067;DHT22;9158;51.528;7.192;2023-09-19T01:19:31;15.40;99.90
18067;DHT22;9158;51.528;7.192;2023-09-19T01:20:24;15.40;99.90
18067;DHT22;9158;51.528;7.192;2023-09-19T01:21:05;15.40;99.90
18067;DHT22;9158;51.528;7.192;2023-09-19T01:21:47;15.40;99.90
18067;DHT22;9158;51.528;7.192;2023-09-19T01:22:29;15.40;99.90
18067;DHT22;9158;51.528;7.192;2023-09-19T01:23:11;15.40;99.90
18067;DHT22;9158;51.528;7.192;2023-09-19T01:24:05;15.40;99.90
18067;DHT22;9158;51.528;7.192;2023-09-19T01:25:07;15.30;99.90
18067;DHT22;9158;51.528;7.192;2023-09-19T01:26:18;15.40;99.90
18067;DHT22;9158;51.528;7.192;2023-09-19T01:27:17;15.40;99.90
18067;DHT22;9158;51.528;7.192;2023-09-19T01:28:12;15.30;99.90
18067;DHT22;9158;51.528;7.192;2023-09-19T01:28:54;15.30;99.90
18067;DHT22;9158;51.528;7.192;2023-09-19T01:29:36;15.30;99.90
18067;DHT22;9158;51.528;7.192;2023-09-19T01:30:14;15.30;99.90
18067;DHT22;9158;51.528;7.192;2023-09-19T01:30:46;15.30;99.90
18067;DHT22;9158;51.528;7.192;2023-09-19T01:31:18;15.30;99.90
18067;DHT22;9158;51.528;7.192;2023-09-19T01:31:52;15.30;99.90
18067;DHT22;9158;51.528;7.192;2023-09-19T01:32:25;15.30;99.90
18067;DHT22;9158;51.528;7.192;2023-09-19T01:32:56;15.30;99.90
18067;DHT22;9158;51.528;7.192;2023-09-19T01:33:54;15.30;99.90
18067;DHT22;9158;51.528;7.192;2023-09-19T01:34:43;15.30;99.90
18067;DHT22;9158;51.528;7.192;2023-09-19T01:35:16;15.30;99.90
18067;DHT22;9158;51.528;7.192;2023-09-19T01:35:49;15.30;99.90
18067;DHT22;9158;51.528;7.192;2023-09-19T01:36:20;15.30;99.90
18067;DHT22;9158;51.528;7.192;2023-09-19T01:36:54;15.30;99.90
18067;DHT22;9158;51.528;7.192;2023-09-19T01:37:25;15.30;99.90
18067;DHT22;9158;51.528;7.192;2023-09-19T01:37:56;15.30;99.90
18067;DHT22;9158;51.528;7.192;2023-09-19T01:38:30;15.30;99.90
18067;DHT22;9158;51.528;7.192;2023-09-19T01:39:02;15.30;99.90
18067;DHT22;9158;51.528;7.192;2023-09-19T01:39:41;15.20;99.90
18067;DHT22;9158;51.528;7.192;2023-09-19T01:40:14;15.20;99.90
18067;DHT22;9158;51.528;7.192;2023-09-19T01:41:03;15.20;99.90
18067;DHT22;9158;51.528;7.192;2023-09-19T01:41:47;15.20;99.90
18067;DHT22;9158;51.528;7.192;2023-09-19T01:42:28;15.20;99.90
18067;DHT22;9158;51.528;7.192;2023-09-19T01:43:07;15.20;99.90
18067;DHT22;9158;51.528;7.192;2023-09-19T01:43:42;15.20;99.90
18067;DHT22;9158;51.528;7.192;2023-09-19T01:44:25;15.20;99.90
18067;DHT22;9158;51.528;7.192;2023-09-19T01:45:13;15.20;99.90
18067;DHT22;9158;51.528;7.192;2023-09-19T01:45:55;15.20;99.90
18067;DHT22;9158;51.528;7.192;2023-09-19T01:46:33;15.20;99.90
18067;DHT22;9158;51.528;7.192;2023-09-19T01:47:15;15.20;99.90
18067;DHT22;9158;51.528;7.192;2023-09-19T01:47:51;15.20;99.90
18067;DHT22;9158;51.528;7.192;2023-09-19T01:48:32;15.20;99.90
18067;DHT22;9158;51.528;7.192;2023-09-19T01:49:18;15.20;99.90
18067;DHT22;9158;51.528;7.192;2023-09-19T01:49:57;15.20;99.90
18067;DHT22;9158;51.528;7.192;2023-09-19T01:50:32;15.20;99.90
18067;DHT22;9158;51.528;7.192;2023-09-19T01:51:08;15.10;99.90
18067;DHT22;9158;51.528;7.192;2023-09-19T01:51:46;15.20;99.90
18067;DHT22;9158;51.528;7.192;2023-09-19T01:52:20;15.10;99.90
18067;DHT22;9158;51.528;7.192;2023-09-19T01:52:56;15.10;99.90
18067;DHT22;9158;51.528;7.192;2023-09-19T01:53:33;15.10;99.90
18067;DHT22;9158;51.528;7.192;2023-09-19T01:54:10;15.10;99.90
18067;DHT22;9158;51.528;7.192;2023-09-19T01:54:48;15.10;99.90
18067;DHT22;9158;51.528;7.192;2023-09-19T01:55:22;15.20;99.90
18067;DHT22;9158;51.528;7.192;2023-09-19T01:55:54;15.20;99.90
18067;DHT22;9158;51.528;7.192;2023-09-19T01:56:30;15.10;99.90
18067;DHT22;9158;51.528;7.192;2023-09-19T01:57:08;15.20;99.90
18067;DHT22;9158;51.528;7.192;2023-09-19T01:57:43;15.10;99.90
18067;DHT22;9158;51.528;7.192;2023-09-19T01:58:21;15.10;99.90
18067;DHT22;9158;51.528;7.192;2023-09-19T01:58:59;15.10;99.90
18067;DHT22;9158;51.528;7.192;2023-09-19T01:59:35;15.10;99.90
18067;DHT22;9158;51.528;7.192;2023-09-19T02:00:13;15.10;99.90
18067;DHT22;9158;51.528;7.192;2023-09-19T02:00:46;15.10;99.90
18067;DHT22;9158;51.528;7.192;2023-09-19T02:01:22;15.10;99.90
18067;DHT22;9158;51.528;7.192;2023-09-19T02:01:54;15.10;99.90
18067;DHT22;9158;51.528;7.192;2023-09-19T02:02:27;15.10;99.90
18067;DHT22;9158;51.528;7.192;2023-09-19T02:03:00;15.10;99.90
18067;DHT22;9158;51.528;7.192;2023-09-19T02:03:34;15.10;99.90
18067;DHT22;9158;51.528;7.192;2023-09-19T02:04:05;15.10;99.90
18067;DHT22;9158;51.528;7.192;2023-09-19T02:04:37;15.10;99.90
18067;DHT22;9158;51.528;7.192;2023-09-19T02:05:08;15.10;99.90
18067;DHT22;9158;51.528;7.192;2023-09-19T02:05:48;15.10;99.90
18067;DHT22;9158;51.528;7.192;2023-09-19T02:06:20;15.10;99.90
18067;DHT22;9158;51.528;7.192;2023-09-19T02:06:52;15.10;80.00
18067;DHT22;9158;51.528;7.192;2023-09-19T02:07:23;15.00;26.20
18067;DHT22;9158;51.528;7.192;2023-09-19T02:07:55;15.00;52.00
18067;DHT22;9158;51.528;7.192;2023-09-19T02:08:26;15.00;1.00
18067;DHT22;9158;51.528;7.192;2023-09-19T02:08:57;15.10;3.00
18067;DHT22;9158;51.528;7.192;2023-09-19T02:09:30;15.10;6.20
18067;DHT22;9158;51.528;7.192;2023-09-19T02:10:02;15.10;6.80
18067;DHT22;9158;51.528;7.192;2023-09-19T02:10:34;15.10;40.60
18067;DHT22;9158;51.528;7.192;2023-09-19T02:11:05;15.10;1.00
18067;DHT22;9158;51.528;7.192;2023-09-19T02:11:37;15.00;1.00
18067;DHT22;9158;51.528;7.192;2023-09-19T02:12:09;15.10;1.00
18067;DHT22;9158;51.528;7.192;2023-09-19T02:12:40;15.00;1.00
18067;DHT22;9158;51.528;7.192;2023-09-19T02:13:11;15.00;26.30
18067;DHT22;9158;51.528;7.192;2023-09-19T02:13:44;15.00;1.00
18067;DHT22;9158;51.528;7.192;2023-09-19T02:14:16;15.00;1.00
18067;DHT22;9158;51.528;7.192;2023-09-19T02:14:47;15.00;1.00
18067;DHT22;9158;51.528;7.192;2023-09-19T02:15:21;15.00;1.00
18067;DHT22;9158;51.528;7.192;2023-09-19T02:15:52;15.10;1.00
18067;DHT22;9158;51.528;7.192;2023-09-19T02:16:23;15.00;1.00
18067;DHT22;9158;51.528;7.192;2023-09-19T02:16:55;15.00;1.00
18067;DHT22;9158;51.528;7.192;2023-09-19T02:17:27;15.00;1.00
18067;DHT22;9158;51.528;7.192;2023-09-19T02:17:58;15.00;1.00
18067;DHT22;9158;51.528;7.192;2023-09-19T02:18:30;15.10;1.00
18067;DHT22;9158;51.528;7.192;2023-09-19T02:19:01;15.00;1.00
18067;DHT22;9158;51.528;7.192;2023-09-19T02:19:36;15.00;1.00
18067;DHT22;9158;51.528;7.192;2023-09-19T02:20:10;15.10;1.00
18067;DHT22;9158;51.528;7.192;2023-09-19T02:20:45;15.00;1.00
18067;DHT22;9158;51.528;7.192;2023-09-19T02:21:16;15.00;1.00
18067;DHT22;9158;51.528;7.192;2023-09-19T02:21:47;15.00;1.00
18067;DHT22;9158;51.528;7.192;2023-09-19T02:22:20;15.00;1.00
18067;DHT22;9158;51.528;7.192;2023-09-19T02:22:51;15.00;1.00
18067;DHT22;9158;51.528;7.192;2023-09-19T02:23:23;15.00;1.00
18067;DHT22;9158;51.528;7.192;2023-09-19T02:23:56;15.00;1.00
18067;DHT22;9158;51.528;7.192;2023-09-19T02:24:27;15.00;1.00
18067;DHT22;9158;51.528;7.192;2023-09-19T02:24:58;15.00;1.00
18067;DHT22;9158;51.528;7.192;2023-09-19T02:25:31;15.00;1.00
18067;DHT22;9158;51.528;7.192;2023-09-19T02:26:03;15.00;1.00
18067;DHT22;9158;51.528;7.192;2023-09-19T02:26:34;15.00;1.00
18067;DHT22;9158;51.528;7.192;2023-09-19T02:27:06;15.00;1.00
18067;DHT22;9158;51.528;7.192;2023-09-19T02:27:38;15.00;1.00
18067;DHT22;9158;51.528;7.192;2023-09-19T02:28:10;15.00;1.00
18067;DHT22;9158;51.528;7.192;2023-09-19T02:28:42;15.00;1.00
18067;DHT22;9158;51.528;7.192;2023-09-19T02:29:14;15.00;1.00
18067;DHT22;9158;51.528;7.192;2023-09-19T02:29:45;15.00;1.00
18067;DHT22;9158;51.528;7.192;2023-09-19T02:30:17;15.00;1.00
18067;DHT22;9158;51.528;7.192;2023-09-19T02:30:52;15.00;1.00
18067;DHT22;9158;51.528;7.192;2023-09-19T02:31:23;15.00;1.00
18067;DHT22;9158;51.528;7.192;2023-09-19T02:31:55;15.00;1.00
18067;DHT22;9158;51.528;7.192;2023-09-19T02:32:26;15.00;1.00
18067;DHT22;9158;51.528;7.192;2023-09-19T02:32:57;15.00;1.00
18067;DHT22;9158;51.528;7.192;2023-09-19T02:33:28;15.00;1.00
18067;DHT22;9158;51.528;7.192;2023-09-19T02:34:03;15.00;1.00
18067;DHT22;9158;51.528;7.192;2023-09-19T02:34:34;15.00;1.00
18067;DHT22;9158;51.528;7.192;2023-09-19T02:35:07;15.00;1.00
18067;DHT22;9158;51.528;7.192;2023-09-19T02:35:41;15.00;1.00
18067;DHT22;9158;51.528;7.192;2023-09-19T02:36:13;15.00;1.00
18067;DHT22;9158;51.528;7.192;2023-09-19T02:36:47;14.90;1.00
18067;DHT22;9158;51.528;7.192;2023-09-19T02:37:18;14.90;1.00
18067;DHT22;9158;51.528;7.192;2023-09-19T02:37:50;14.90;1.00
18067;DHT22;9158;51.528;7.192;2023-09-19T02:38:22;14.90;1.00
18067;DHT22;9158;51.528;7.192;2023-09-19T02:38:55;14.90;1.00
18067;DHT22;9158;51.528;7.192;2023-09-19T02:39:26;15.00;1.00
18067;DHT22;9158;51.528;7.192;2023-09-19T02:39:59;15.00;1.00
18067;DHT22;9158;51.528;7.192;2023-09-19T02:40:30;15.00;1.00
18067;DHT22;9158;51.528;7.192;2023-09-19T02:41:01;14.90;1.00
18067;DHT22;9158;51.528;7.192;2023-09-19T02:41:32;14.90;1.00
18067;DHT22;9158;51.528;7.192;2023-09-19T02:42:04;14.90;1.00
18067;DHT22;9158;51.528;7.192;2023-09-19T02:42:36;14.90;1.00
18067;DHT22;9158;51.528;7.192;2023-09-19T02:43:07;14.90;1.00
18067;DHT22;9158;51.528;7.192;2023-09-19T02:43:39;14.90;1.00
18067;DHT22;9158;51.528;7.192;2023-09-19T02:44:10;14.90;1.00
18067;DHT22;9158;51.528;7.192;2023-09-19T02:44:41;14.90;1.00
18067;DHT22;9158;51.528;7.192;2023-09-19T02:45:14;14.90;1.00
18067;DHT22;9158;51.528;7.192;2023-09-19T02:45:45;14.90;1.00
18067;DHT22;9158;51.528;7.192;2023-09-19T02:46:18;14.90;1.00
18067;DHT22;9158;51.528;7.192;2023-09-19T02:46:50;14.90;1.00
18067;DHT22;9158;51.528;7.192;2023-09-19T02:47:22;14.90;1.00
18067;DHT22;9158;51.528;7.192;2023-09-19T02:47:53;14.90;1.00
18067;DHT22;9158;51.528;7.192;2023-09-19T02:48:25;14.90;1.00
18067;DHT22;9158;51.528;7.192;2023-09-19T02:48:56;14.90;1.00
18067;DHT22;9158;51.528;7.192;2023-09-19T02:49:27;14.90;1.00
18067;DHT22;9158;51.528;7.192;2023-09-19T02:49:59;14.90;1.00
18067;DHT22;9158;51.528;7.192;2023-09-19T02:50:30;14.90;1.00
18067;DHT22;9158;51.528;7.192;2023-09-19T02:51:01;14.90;1.00
18067;DHT22;9158;51.528;7.192;2023-09-19T02:51:34;14.90;1.00
18067;DHT22;9158;51.528;7.192;2023-09-19T02:52:06;14.80;1.00
18067;DHT22;9158;51.528;7.192;2023-09-19T02:52:38;14.90;1.00
18067;DHT22;9158;51.528;7.192;2023-09-19T02:53:09;14.90;1.00
18067;DHT22;9158;51.528;7.192;2023-09-19T02:53:43;14.90;1.00
18067;DHT22;9158;51.528;7.192;2023-09-19T02:54:14;14.90;1.00
18067;DHT22;9158;51.528;7.192;2023-09-19T02:54:46;14.90;1.00
18067;DHT22;9158;51.528;7.192;2023-09-19T02:55:19;14.90;1.00
18067;DHT22;9158;51.528;7.192;2023-09-19T02:55:52;14.90;1.00
18067;DHT22;9158;51.528;7.192;2023-09-19T02:56:23;14.90;1.00
18067;DHT22;9158;51.528;7.192;2023-09-19T02:56:55;14.90;1.00
18067;DHT22;9158;51.528;7.192;2023-09-19T02:57:27;14.90;1.00
18067;DHT22;9158;51.528;7.192;2023-09-19T02:57:59;14.90;1.00
18067;DHT22;9158;51.528;7.192;2023-09-19T02:58:31;14.90;1.00
18067;DHT22;9158;51.528;7.192;2023-09-19T02:59:06;14.90;1.00
18067;DHT22;9158;51.528;7.192;2023-09-19T02:59:38;14.90;1.00
18067;DHT22;9158;51.528;7.192;2023-09-19T03:00:13;14.90;1.00
18067;DHT22;9158;51.528;7.192;2023-09-19T03:00:45;14.90;1.00
18067;DHT22;9158;51.528;7.192;2023-09-19T03:01:19;14.90;1.00
18067;DHT22;9158;51.528;7.192;2023-09-19T03:01:51;14.90;1.00
18067;DHT22;9158;51.528;7.192;2023-09-19T03:02:25;14.90;1.00
18067;DHT22;9158;51.528;7.192;2023-09-19T03:02:56;14.90;1.00
18067;DHT22;9158;51.528;7.192;2023-09-19T03:03:27;14.90;1.00
18067;DHT22;9158;51.528;7.192;2023-09-19T03:03:59;14.80;1.00
18067;DHT22;9158;51.528;7.192;2023-09-19T03:04:31;14.80;1.00
18067;DHT22;9158;51.528;7.192;2023-09-19T03:05:05;14.90;1.00
18067;DHT22;9158;51.528;7.192;2023-09-19T03:05:36;14.80;1.00
18067;DHT22;9158;51.528;7.192;2023-09-19T03:06:09;14.80;1.00
18067;DHT22;9158;51.528;7.192;2023-09-19T03:06:41;14.80;1.00
18067;DHT22;9158;51.528;7.192;2023-09-19T03:07:13;14.90;1.00
18067;DHT22;9158;51.528;7.192;2023-09-19T03:07:44;14.80;1.00
18067;DHT22;9158;51.528;7.192;2023-09-19T03:08:21;14.80;1.00
18067;DHT22;9158;51.528;7.192;2023-09-19T03:08:54;14.80;1.00
18067;DHT22;9158;51.528;7.192;2023-09-19T03:09:27;14.80;1.00
18067;DHT22;9158;51.528;7.192;2023-09-19T03:09:58;14.80;1.00
18067;DHT22;9158;51.528;7.192;2023-09-19T03:10:29;14.80;1.00
18067;DHT22;9158;51.528;7.192;2023-09-19T03:11:03;14.90;1.00
18067;DHT22;9158;51.528;7.192;2023-09-19T03:11:34;14.80;1.00
18067;DHT22;9158;51.528;7.192;2023-09-19T03:12:06;14.80;1.00
18067;DHT22;9158;51.528;7.192;2023-09-19T03:12:38;14.80;1.00
18067;DHT22;9158;51.528;7.192;2023-09-19T03:13:11;14.80;1.00
18067;DHT22;9158;51.528;7.192;2023-09-19T03:13:42;14.80;1.00
18067;DHT22;9158;51.528;7.192;2023-09-19T03:14:16;14.90;1.00
18067;DHT22;9158;51.528;7.192;2023-09-19T03:14:51;14.80;1.00
18067;DHT22;9158;51.528;7.192;2023-09-19T03:15:23;14.80;1.00
18067;DHT22;9158;51.528;7.192;2023-09-19T03:15:56;14.80;1.00
18067;DHT22;9158;51.528;7.192;2023-09-19T03:16:32;14.80;1.00
18067;DHT22;9158;51.528;7.192;2023-09-19T03:17:04;14.80;1.00
18067;DHT22;9158;51.528;7.192;2023-09-19T03:17:37;14.80;1.00
18067;DHT22;9158;51.528;7.192;2023-09-19T03:18:08;14.80;1.00
18067;DHT22;9158;51.528;7.192;2023-09-19T03:18:39;14.80;1.00
18067;DHT22;9158;51.528;7.192;2023-09-19T03:19:10;14.80;1.00
18067;DHT22;9158;51.528;7.192;2023-09-19T03:19:42;14.80;1.00
18067;DHT22;9158;51.528;7.192;2023-09-19T03:20:14;14.80;1.00
18067;DHT22;9158;51.528;7.192;2023-09-19T03:20:53;14.80;1.00
18067;DHT22;9158;51.528;7.192;2023-09-19T03:21:26;14.80;1.00
18067;DHT22;9158;51.528;7.192;2023-09-19T03:21:57;14.80;1.00
18067;DHT22;9158;51.528;7.192;2023-09-19T03:22:28;14.80;1.00
18067;DHT22;9158;51.528;7.192;2023-09-19T03:22:59;14.80;1.00
18067;DHT22;9158;51.528;7.192;2023-09-19T03:23:33;14.80;1.00
18067;DHT22;9158;51.528;7.192;2023-09-19T03:24:05;14.80;1.00
18067;DHT22;9158;51.528;7.192;2023-09-19T03:24:36;14.80;1.00
18067;DHT22;9158;51.528;7.192;2023-09-19T03:25:09;14.80;1.00
18067;DHT22;9158;51.528;7.192;2023-09-19T03:25:43;14.80;1.00
18067;DHT22;9158;51.528;7.192;2023-09-19T03:26:14;14.80;1.00
18067;DHT22;9158;51.528;7.192;2023-09-19T03:26:47;14.80;99.90
18067;DHT22;9158;51.528;7.192;2023-09-19T03:27:20;14.80;99.90
18067;DHT22;9158;51.528;7.192;2023-09-19T03:27:52;14.80;99.90
18067;DHT22;9158;51.528;7.192;2023-09-19T03:28:24;14.80;99.90
18067;DHT22;9158;51.528;7.192;2023-09-19T03:28:55;14.80;99.90
18067;DHT22;9158;51.528;7.192;2023-09-19T03:29:27;14.80;99.90
18067;DHT22;9158;51.528;7.192;2023-09-19T03:29:59;14.80;99.90
18067;DHT22;9158;51.528;7.192;2023-09-19T03:30:30;14.80;99.90
18067;DHT22;9158;51.528;7.192;2023-09-19T03:31:05;14.80;99.90
18067;DHT22;9158;51.528;7.192;2023-09-19T03:31:39;14.80;99.90
18067;DHT22;9158;51.528;7.192;2023-09-19T03:32:12;14.80;99.90
18067;DHT22;9158;51.528;7.192;2023-09-19T03:32:44;14.80;99.90
18067;DHT22;9158;51.528;7.192;2023-09-19T03:33:16;14.80;99.90
18067;DHT22;9158;51.528;7.192;2023-09-19T03:33:49;14.80;99.90
18067;DHT22;9158;51.528;7.192;2023-09-19T03:34:20;14.80;99.90
18067;DHT22;9158;51.528;7.192;2023-09-19T03:34:51;14.80;99.90
18067;DHT22;9158;51.528;7.192;2023-09-19T03:35:22;14.80;99.90
18067;DHT22;9158;51.528;7.192;2023-09-19T03:35:55;14.80;99.90
18067;DHT22;9158;51.528;7.192;2023-09-19T03:36:29;14.80;99.90
18067;DHT22;9158;51.528;7.192;2023-09-19T03:37:01;14.80;99.90
18067;DHT22;9158;51.528;7.192;2023-09-19T03:37:32;14.80;99.90
18067;DHT22;9158;51.528;7.192;2023-09-19T03:38:03;14.80;99.90
18067;DHT22;9158;51.528;7.192;2023-09-19T03:38:34;14.80;99.90
18067;DHT22;9158;51.528;7.192;2023-09-19T03:39:06;14.80;99.90